sensor_id;sensor_type;location;lat;lon;timestamp;P1;durP1;ratioP1;P2;durP2;ratioP2
20486;SDS011;10402;49.012;8.370;2024-03-02T00:02:11;235.57;;;226.60;;
20486;SDS011;10402;49.012;8.370;2024-03-02T00:04:37;236.50;;;227.47;;
20486;SDS011;10402;49.012;8.370;2024-03-02T00:07:03;251.53;;;241.60;;
20486;SDS011;10402;49.012;8.370;2024-03-02T00:09:29;258.63;;;248.70;;
20486;SDS011;10402;49.012;8.370;2024-03-02T00:11:54;290.20;;;278.53;;
20486;SDS011;10402;49.012;8.370;2024-03-02T00:14:20;284.47;;;273.20;;
20486;SDS011;10402;49.012;8.370;2024-03-02T00:16:46;311.60;;;299.00;;
20486;SDS011;10402;49.012;8.370;2024-03-02T00:19:11;339.47;;;325.63;;
20486;SDS011;10402;49.012;8.370;2024-03-02T00:21:37;313.23;;;300.50;;
20486;SDS011;10402;49.012;8.370;2024-03-02T00:24:26;340.23;;;326.10;;
20486;SDS011;10402;49.012;8.370;2024-03-02T00:26:59;324.92;;;311.52;;
20486;SDS011;10402;49.012;8.370;2024-03-02T00:29:25;347.47;;;333.00;;
20486;SDS011;10402;49.012;8.370;2024-03-02T00:31:51;333.95;;;320.13;;
20486;SDS011;10402;49.012;8.370;2024-03-02T00:34:18;353.42;;;338.77;;
20486;SDS011;10402;49.012;8.370;2024-03-02T00:36:44;350.90;;;336.50;;
20486;SDS011;10402;49.012;8.370;2024-03-02T00:39:11;357.52;;;342.58;;
20486;SDS011;10402;49.012;8.370;2024-03-02T00:41:40;351.42;;;336.88;;
20486;SDS011;10402;49.012;8.370;2024-03-02T00:44:11;345.27;;;331.15;;
20486;SDS011;10402;49.012;8.370;2024-03-02T00:49:25;348.40;;;333.95;;
20486;SDS011;10402;49.012;8.370;2024-03-02T00:51:52;378.02;;;362.20;;
20486;SDS011;10402;49.012;8.370;2024-03-02T00:54:19;367.77;;;352.45;;
20486;SDS011;10402;49.012;8.370;2024-03-02T00:56:50;384.88;;;368.63;;
20486;SDS011;10402;49.012;8.370;2024-03-02T00:59:16;382.75;;;366.58;;
20486;SDS011;10402;49.012;8.370;2024-03-02T01:01:42;380.33;;;364.17;;
20486;SDS011;10402;49.012;8.370;2024-03-02T01:04:08;412.37;;;394.90;;
20486;SDS011;10402;49.012;8.370;2024-03-02T01:06:34;384.27;;;368.33;;
20486;SDS011;10402;49.012;8.370;2024-03-02T01:09:00;401.08;;;383.90;;
20486;SDS011;10402;49.012;8.370;2024-03-02T01:11:26;415.77;;;397.97;;
20486;SDS011;10402;49.012;8.370;2024-03-02T01:13:51;423.33;;;405.07;;
20486;SDS011;10402;49.012;8.370;2024-03-02T01:16:17;406.80;;;389.47;;
20486;SDS011;10402;49.012;8.370;2024-03-02T01:18:43;402.77;;;385.57;;
20486;SDS011;10402;49.012;8.370;2024-03-02T01:21:09;403.38;;;386.08;;
20486;SDS011;10402;49.012;8.370;2024-03-02T01:23:34;415.27;;;397.07;;
20486;SDS011;10402;49.012;8.370;2024-03-02T01:26:00;421.90;;;404.10;;
20486;SDS011;10402;49.012;8.370;2024-03-02T01:28:25;417.53;;;399.23;;
20486;SDS011;10402;49.012;8.370;2024-03-02T01:30:51;411.23;;;393.53;;
20486;SDS011;10402;49.012;8.370;2024-03-02T01:33:17;395.67;;;378.60;;
20486;SDS011;10402;49.012;8.370;2024-03-02T01:35:43;414.37;;;396.67;;
20486;SDS011;10402;49.012;8.370;2024-03-02T01:38:08;442.20;;;423.23;;
20486;SDS011;10402;49.012;8.370;2024-03-02T01:40:34;428.40;;;409.47;;
20486;SDS011;10402;49.012;8.370;2024-03-02T01:43:00;416.23;;;398.30;;
20486;SDS011;10402;49.012;8.370;2024-03-02T01:45:27;422.65;;;404.05;;
20486;SDS011;10402;49.012;8.370;2024-03-02T01:47:53;423.13;;;404.07;;
20486;SDS011;10402;49.012;8.370;2024-03-02T01:50:28;395.27;;;377.83;;
20486;SDS011;10402;49.012;8.370;2024-03-02T01:52:55;396.73;;;378.73;;
20486;SDS011;10402;49.012;8.370;2024-03-02T01:55:21;394.42;;;376.92;;
20486;SDS011;10402;49.012;8.370;2024-03-02T01:57:47;386.20;;;368.80;;
20486;SDS011;10402;49.012;8.370;2024-03-02T02:00:17;377.48;;;360.13;;
20486;SDS011;10402;49.012;8.370;2024-03-02T02:02:46;363.65;;;347.15;;
20486;SDS011;10402;49.012;8.370;2024-03-02T02:05:12;350.10;;;334.30;;
20486;SDS011;10402;49.012;8.370;2024-03-02T02:07:38;330.73;;;315.97;;
20486;SDS011;10402;49.012;8.370;2024-03-02T02:10:06;339.95;;;324.80;;
20486;SDS011;10402;49.012;8.370;2024-03-02T02:12:32;310.80;;;296.93;;
20486;SDS011;10402;49.012;8.370;2024-03-02T02:14:58;312.17;;;298.37;;
20486;SDS011;10402;49.012;8.370;2024-03-02T02:17:24;308.27;;;295.10;;
20486;SDS011;10402;49.012;8.370;2024-03-02T02:19:49;289.93;;;277.27;;
20486;SDS011;10402;49.012;8.370;2024-03-02T02:22:15;307.70;;;293.87;;
20486;SDS011;10402;49.012;8.370;2024-03-02T02:24:41;299.57;;;286.20;;
20486;SDS011;10402;49.012;8.370;2024-03-02T02:27:07;324.95;;;310.77;;
20486;SDS011;10402;49.012;8.370;2024-03-02T02:29:33;318.30;;;304.15;;
20486;SDS011;10402;49.012;8.370;2024-03-02T02:31:59;328.87;;;314.23;;
20486;SDS011;10402;49.012;8.370;2024-03-02T02:34:24;330.23;;;315.53;;
20486;SDS011;10402;49.012;8.370;2024-03-02T02:36:50;312.33;;;298.33;;
20486;SDS011;10402;49.012;8.370;2024-03-02T02:39:15;310.10;;;296.23;;
20486;SDS011;10402;49.012;8.370;2024-03-02T02:41:44;339.75;;;324.17;;
20486;SDS011;10402;49.012;8.370;2024-03-02T02:44:09;320.30;;;306.07;;
20486;SDS011;10402;49.012;8.370;2024-03-02T02:46:37;312.33;;;298.25;;
20486;SDS011;10402;49.012;8.370;2024-03-02T02:49:06;306.13;;;292.30;;
20486;SDS011;10402;49.012;8.370;2024-03-02T02:51:32;284.30;;;271.57;;
20486;SDS011;10402;49.012;8.370;2024-03-02T02:53:57;271.50;;;260.00;;
20486;SDS011;10402;49.012;8.370;2024-03-02T02:56:23;265.03;;;253.60;;
20486;SDS011;10402;49.012;8.370;2024-03-02T02:58:49;251.93;;;241.33;;
20486;SDS011;10402;49.012;8.370;2024-03-02T03:01:15;252.33;;;241.83;;
20486;SDS011;10402;49.012;8.370;2024-03-02T03:03:42;241.55;;;231.77;;
20486;SDS011;10402;49.012;8.370;2024-03-02T03:06:09;226.70;;;217.77;;
20486;SDS011;10402;49.012;8.370;2024-03-02T03:08:35;213.43;;;205.07;;
20486;SDS011;10402;49.012;8.370;2024-03-02T03:11:00;189.77;;;182.50;;
20486;SDS011;10402;49.012;8.370;2024-03-02T03:13:26;177.53;;;171.03;;
20486;SDS011;10402;49.012;8.370;2024-03-02T03:15:52;161.13;;;155.30;;
20486;SDS011;10402;49.012;8.370;2024-03-02T03:18:17;157.27;;;151.73;;
20486;SDS011;10402;49.012;8.370;2024-03-02T03:20:43;164.88;;;159.02;;
20486;SDS011;10402;49.012;8.370;2024-03-02T03:23:09;164.27;;;158.43;;
20486;SDS011;10402;49.012;8.370;2024-03-02T03:25:40;173.48;;;167.25;;
20486;SDS011;10402;49.012;8.370;2024-03-02T03:28:05;160.83;;;155.17;;
20486;SDS011;10402;49.012;8.370;2024-03-02T03:30:31;163.60;;;157.93;;
20486;SDS011;10402;49.012;8.370;2024-03-02T03:32:56;160.57;;;154.90;;
20486;SDS011;10402;49.012;8.370;2024-03-02T03:35:22;164.63;;;158.73;;
20486;SDS011;10402;49.012;8.370;2024-03-02T03:37:47;161.93;;;156.33;;
20486;SDS011;10402;49.012;8.370;2024-03-02T03:40:13;162.60;;;156.97;;
20486;SDS011;10402;49.012;8.370;2024-03-02T03:42:39;158.88;;;153.20;;
20486;SDS011;10402;49.012;8.370;2024-03-02T03:45:05;163.70;;;157.87;;
20486;SDS011;10402;49.012;8.370;2024-03-02T03:47:32;157.75;;;152.18;;
20486;SDS011;10402;49.012;8.370;2024-03-02T03:49:57;157.95;;;152.45;;
20486;SDS011;10402;49.012;8.370;2024-03-02T03:52:23;163.93;;;158.13;;
20486;SDS011;10402;49.012;8.370;2024-03-02T03:54:49;153.73;;;148.30;;
20486;SDS011;10402;49.012;8.370;2024-03-02T03:57:15;146.07;;;141.03;;
20486;SDS011;10402;49.012;8.370;2024-03-02T03:59:41;137.00;;;132.43;;
20486;SDS011;10402;49.012;8.370;2024-03-02T04:02:07;146.15;;;141.18;;
20486;SDS011;10402;49.012;8.370;2024-03-02T04:07:55;106.72;;;103.22;;
20486;SDS011;10402;49.012;8.370;2024-03-02T04:10:21;117.17;;;113.27;;
20486;SDS011;10402;49.012;8.370;2024-03-02T04:12:46;106.90;;;103.43;;
20486;SDS011;10402;49.012;8.370;2024-03-02T04:15:12;104.40;;;100.93;;
20486;SDS011;10402;49.012;8.370;2024-03-02T04:17:37;100.07;;;96.77;;
20486;SDS011;10402;49.012;8.370;2024-03-02T04:20:03;105.73;;;102.27;;
20486;SDS011;10402;49.012;8.370;2024-03-02T04:22:30;114.65;;;110.85;;
20486;SDS011;10402;49.012;8.370;2024-03-02T04:24:57;114.65;;;110.85;;
20486;SDS011;10402;49.012;8.370;2024-03-02T04:27:23;113.33;;;109.57;;
20486;SDS011;10402;49.012;8.370;2024-03-02T04:29:48;117.67;;;113.73;;
20486;SDS011;10402;49.012;8.370;2024-03-02T04:32:14;123.20;;;119.10;;
20486;SDS011;10402;49.012;8.370;2024-03-02T04:34:40;115.53;;;111.67;;
20486;SDS011;10402;49.012;8.370;2024-03-02T04:37:06;115.10;;;111.30;;
20486;SDS011;10402;49.012;8.370;2024-03-02T04:39:34;120.28;;;116.28;;
20486;SDS011;10402;49.012;8.370;2024-03-02T04:42:00;120.47;;;116.45;;
20486;SDS011;10402;49.012;8.370;2024-03-02T04:44:25;131.57;;;127.17;;
20486;SDS011;10402;49.012;8.370;2024-03-02T04:46:51;115.30;;;111.50;;
20486;SDS011;10402;49.012;8.370;2024-03-02T04:49:17;124.40;;;120.23;;
20486;SDS011;10402;49.012;8.370;2024-03-02T04:51:42;129.40;;;125.03;;
20486;SDS011;10402;49.012;8.370;2024-03-02T04:54:08;134.50;;;129.97;;
20486;SDS011;10402;49.012;8.370;2024-03-02T04:56:33;133.27;;;128.87;;
20486;SDS011;10402;49.012;8.370;2024-03-02T04:59:09;127.43;;;123.18;;
20486;SDS011;10402;49.012;8.370;2024-03-02T05:01:35;139.63;;;134.93;;
20486;SDS011;10402;49.012;8.370;2024-03-02T05:04:01;132.60;;;128.17;;
20486;SDS011;10402;49.012;8.370;2024-03-02T05:06:26;137.97;;;133.27;;
20486;SDS011;10402;49.012;8.370;2024-03-02T05:08:52;139.97;;;135.13;;
20486;SDS011;10402;49.012;8.370;2024-03-02T05:11:17;127.67;;;123.33;;
20486;SDS011;10402;49.012;8.370;2024-03-02T05:14:01;141.90;;;137.02;;
20486;SDS011;10402;49.012;8.370;2024-03-02T05:16:27;140.60;;;135.80;;
20486;SDS011;10402;49.012;8.370;2024-03-02T05:18:52;145.23;;;140.23;;
20486;SDS011;10402;49.012;8.370;2024-03-02T05:21:18;144.00;;;139.00;;
20486;SDS011;10402;49.012;8.370;2024-03-02T05:23:43;153.03;;;147.80;;
20486;SDS011;10402;49.012;8.370;2024-03-02T05:26:09;149.27;;;144.17;;
20486;SDS011;10402;49.012;8.370;2024-03-02T05:28:37;155.50;;;150.15;;
20486;SDS011;10402;49.012;8.370;2024-03-02T05:31:03;170.10;;;164.20;;
20486;SDS011;10402;49.012;8.370;2024-03-02T05:33:29;190.53;;;183.87;;
20486;SDS011;10402;49.012;8.370;2024-03-02T05:35:56;191.88;;;185.10;;
20486;SDS011;10402;49.012;8.370;2024-03-02T05:38:22;194.17;;;187.37;;
20486;SDS011;10402;49.012;8.370;2024-03-02T05:40:48;195.57;;;188.70;;
20486;SDS011;10402;49.012;8.370;2024-03-02T05:43:13;194.03;;;187.13;;
20486;SDS011;10402;49.012;8.370;2024-03-02T05:45:39;188.43;;;181.83;;
20486;SDS011;10402;49.012;8.370;2024-03-02T05:48:06;185.60;;;179.13;;
20486;SDS011;10402;49.012;8.370;2024-03-02T05:50:35;166.18;;;160.30;;
20486;SDS011;10402;49.012;8.370;2024-03-02T05:53:00;186.63;;;180.03;;
20486;SDS011;10402;49.012;8.370;2024-03-02T05:55:26;187.13;;;180.53;;
20486;SDS011;10402;49.012;8.370;2024-03-02T05:57:51;178.63;;;172.37;;
20486;SDS011;10402;49.012;8.370;2024-03-02T06:00:23;185.32;;;178.85;;
20486;SDS011;10402;49.012;8.370;2024-03-02T06:02:48;194.80;;;187.90;;
20486;SDS011;10402;49.012;8.370;2024-03-02T06:05:14;210.50;;;203.17;;
20486;SDS011;10402;49.012;8.370;2024-03-02T06:07:41;204.90;;;197.73;;
20486;SDS011;10402;49.012;8.370;2024-03-02T06:10:08;205.18;;;197.98;;
20486;SDS011;10402;49.012;8.370;2024-03-02T06:12:34;201.20;;;194.13;;
20486;SDS011;10402;49.012;8.370;2024-03-02T06:14:59;200.57;;;193.40;;
20486;SDS011;10402;49.012;8.370;2024-03-02T06:17:25;214.37;;;206.67;;
20486;SDS011;10402;49.012;8.370;2024-03-02T06:19:50;203.23;;;195.87;;
20486;SDS011;10402;49.012;8.370;2024-03-02T06:22:16;213.33;;;205.57;;
20486;SDS011;10402;49.012;8.370;2024-03-02T06:24:41;206.03;;;198.53;;
20486;SDS011;10402;49.012;8.370;2024-03-02T06:27:07;207.17;;;199.53;;
20486;SDS011;10402;49.012;8.370;2024-03-02T06:29:33;198.20;;;190.93;;
20486;SDS011;10402;49.012;8.370;2024-03-02T06:31:59;190.53;;;183.60;;
20486;SDS011;10402;49.012;8.370;2024-03-02T06:34:25;205.63;;;198.15;;
20486;SDS011;10402;49.012;8.370;2024-03-02T06:36:50;195.57;;;188.30;;
20486;SDS011;10402;49.012;8.370;2024-03-02T06:39:16;200.43;;;192.97;;
20486;SDS011;10402;49.012;8.370;2024-03-02T06:41:41;194.67;;;187.43;;
20486;SDS011;10402;49.012;8.370;2024-03-02T06:44:12;193.10;;;185.95;;
20486;SDS011;10402;49.012;8.370;2024-03-02T06:46:37;195.17;;;187.97;;
20486;SDS011;10402;49.012;8.370;2024-03-02T06:49:03;196.80;;;189.50;;
20486;SDS011;10402;49.012;8.370;2024-03-02T06:51:29;214.90;;;206.87;;
20486;SDS011;10402;49.012;8.370;2024-03-02T06:53:55;204.10;;;196.53;;
20486;SDS011;10402;49.012;8.370;2024-03-02T06:56:21;207.23;;;199.50;;
20486;SDS011;10402;49.012;8.370;2024-03-02T06:58:46;203.53;;;195.87;;
20486;SDS011;10402;49.012;8.370;2024-03-02T07:01:12;207.60;;;199.80;;
20486;SDS011;10402;49.012;8.370;2024-03-02T07:03:38;196.53;;;189.13;;
20486;SDS011;10402;49.012;8.370;2024-03-02T07:06:04;219.93;;;211.63;;
20486;SDS011;10402;49.012;8.370;2024-03-02T07:08:30;212.85;;;205.00;;
20486;SDS011;10402;49.012;8.370;2024-03-02T07:10:56;207.13;;;199.43;;
20486;SDS011;10402;49.012;8.370;2024-03-02T07:13:22;209.50;;;201.63;;
20486;SDS011;10402;49.012;8.370;2024-03-02T07:15:47;218.87;;;210.80;;
20486;SDS011;10402;49.012;8.370;2024-03-02T07:18:33;201.13;;;193.68;;
20486;SDS011;10402;49.012;8.370;2024-03-02T07:20:59;215.55;;;207.70;;
20486;SDS011;10402;49.012;8.370;2024-03-02T07:23:26;215.60;;;207.75;;
20486;SDS011;10402;49.012;8.370;2024-03-02T07:25:55;221.32;;;213.30;;
20486;SDS011;10402;49.012;8.370;2024-03-02T07:28:21;209.65;;;202.15;;
20486;SDS011;10402;49.012;8.370;2024-03-02T07:30:47;218.27;;;210.30;;
20486;SDS011;10402;49.012;8.370;2024-03-02T07:33:26;197.55;;;190.60;;
20486;SDS011;10402;49.012;8.370;2024-03-02T07:35:51;200.80;;;193.73;;
20486;SDS011;10402;49.012;8.370;2024-03-02T07:38:18;173.85;;;167.70;;
20486;SDS011;10402;49.012;8.370;2024-03-02T07:40:44;181.63;;;175.13;;
20486;SDS011;10402;49.012;8.370;2024-03-02T07:43:10;159.10;;;153.63;;
20486;SDS011;10402;49.012;8.370;2024-03-02T07:45:36;150.13;;;144.95;;
20486;SDS011;10402;49.012;8.370;2024-03-02T07:48:02;153.70;;;148.40;;
20486;SDS011;10402;49.012;8.370;2024-03-02T07:50:29;146.73;;;141.75;;
20486;SDS011;10402;49.012;8.370;2024-03-02T07:52:55;131.93;;;127.45;;
20486;SDS011;10402;49.012;8.370;2024-03-02T07:55:21;138.87;;;134.23;;
20486;SDS011;10402;49.012;8.370;2024-03-02T07:57:46;133.70;;;129.23;;
20486;SDS011;10402;49.012;8.370;2024-03-02T08:00:12;117.93;;;113.97;;
20486;SDS011;10402;49.012;8.370;2024-03-02T08:02:39;130.05;;;125.65;;
20486;SDS011;10402;49.012;8.370;2024-03-02T08:05:05;145.23;;;140.18;;
20486;SDS011;10402;49.012;8.370;2024-03-02T08:07:31;170.95;;;165.00;;
20486;SDS011;10402;49.012;8.370;2024-03-02T08:09:56;176.43;;;170.23;;
20486;SDS011;10402;49.012;8.370;2024-03-02T08:12:22;174.97;;;168.77;;
20486;SDS011;10402;49.012;8.370;2024-03-02T08:14:48;167.63;;;161.45;;
20486;SDS011;10402;49.012;8.370;2024-03-02T08:17:14;209.03;;;201.03;;
20486;SDS011;10402;49.012;8.370;2024-03-02T08:19:39;278.77;;;267.40;;
20486;SDS011;10402;49.012;8.370;2024-03-02T08:22:05;322.57;;;308.67;;
20486;SDS011;10402;49.012;8.370;2024-03-02T08:24:31;365.07;;;348.60;;
20486;SDS011;10402;49.012;8.370;2024-03-02T08:26:57;418.27;;;398.87;;
20486;SDS011;10402;49.012;8.370;2024-03-02T08:29:24;459.60;;;438.70;;
20486;SDS011;10402;49.012;8.370;2024-03-02T08:31:50;470.60;;;449.27;;
20486;SDS011;10402;49.012;8.370;2024-03-02T08:34:15;463.70;;;443.07;;
20486;SDS011;10402;49.012;8.370;2024-03-02T08:36:41;439.40;;;420.33;;
20486;SDS011;10402;49.012;8.370;2024-03-02T08:39:07;425.33;;;407.20;;
20486;SDS011;10402;49.012;8.370;2024-03-02T08:41:40;382.48;;;366.40;;
20486;SDS011;10402;49.012;8.370;2024-03-02T08:44:07;318.52;;;305.88;;
20486;SDS011;10402;49.012;8.370;2024-03-02T08:46:32;278.70;;;267.63;;
20486;SDS011;10402;49.012;8.370;2024-03-02T08:48:58;196.07;;;188.70;;
20486;SDS011;10402;49.012;8.370;2024-03-02T08:51:23;141.73;;;136.70;;
20486;SDS011;10402;49.012;8.370;2024-03-02T08:53:49;107.57;;;103.73;;
20486;SDS011;10402;49.012;8.370;2024-03-02T08:56:14;90.63;;;87.47;;
20486;SDS011;10402;49.012;8.370;2024-03-02T08:58:41;91.20;;;87.97;;
20486;SDS011;10402;49.012;8.370;2024-03-02T09:01:06;98.77;;;95.33;;
20486;SDS011;10402;49.012;8.370;2024-03-02T09:03:33;115.40;;;111.30;;
20486;SDS011;10402;49.012;8.370;2024-03-02T09:05:59;121.93;;;117.80;;
20486;SDS011;10402;49.012;8.370;2024-03-02T09:08:25;118.53;;;114.47;;
20486;SDS011;10402;49.012;8.370;2024-03-02T09:10:51;122.47;;;118.37;;
20486;SDS011;10402;49.012;8.370;2024-03-02T09:13:17;126.40;;;122.10;;
20486;SDS011;10402;49.012;8.370;2024-03-02T09:15:42;126.27;;;121.93;;
20486;SDS011;10402;49.012;8.370;2024-03-02T09:18:09;141.57;;;136.57;;
20486;SDS011;10402;49.012;8.370;2024-03-02T09:20:35;172.83;;;166.40;;
20486;SDS011;10402;49.012;8.370;2024-03-02T09:23:00;179.50;;;172.97;;
20486;SDS011;10402;49.012;8.370;2024-03-02T09:25:26;197.17;;;189.63;;
20486;SDS011;10402;49.012;8.370;2024-03-02T09:27:51;207.73;;;199.97;;
20486;SDS011;10402;49.012;8.370;2024-03-02T09:30:17;217.30;;;209.23;;
20486;SDS011;10402;49.012;8.370;2024-03-02T09:32:42;194.87;;;187.83;;
20486;SDS011;10402;49.012;8.370;2024-03-02T09:35:08;182.00;;;175.37;;
20486;SDS011;10402;49.012;8.370;2024-03-02T09:37:37;162.67;;;156.67;;
20486;SDS011;10402;49.012;8.370;2024-03-02T09:40:03;142.87;;;137.70;;
20486;SDS011;10402;49.012;8.370;2024-03-02T09:42:29;148.80;;;143.47;;
20486;SDS011;10402;49.012;8.370;2024-03-02T09:44:55;132.30;;;127.67;;
20486;SDS011;10402;49.012;8.370;2024-03-02T09:47:21;131.93;;;127.33;;
20486;SDS011;10402;49.012;8.370;2024-03-02T09:49:47;146.80;;;141.70;;
20486;SDS011;10402;49.012;8.370;2024-03-02T09:52:13;153.17;;;147.73;;
20486;SDS011;10402;49.012;8.370;2024-03-02T09:54:39;181.27;;;174.67;;
20486;SDS011;10402;49.012;8.370;2024-03-02T09:57:05;203.93;;;196.43;;
20486;SDS011;10402;49.012;8.370;2024-03-02T09:59:30;216.77;;;208.77;;
20486;SDS011;10402;49.012;8.370;2024-03-02T10:01:57;233.83;;;225.23;;
20486;SDS011;10402;49.012;8.370;2024-03-02T10:04:25;243.93;;;235.10;;
20486;SDS011;10402;49.012;8.370;2024-03-02T10:06:51;229.43;;;221.03;;
20486;SDS011;10402;49.012;8.370;2024-03-02T10:09:27;241.77;;;232.83;;
20486;SDS011;10402;49.012;8.370;2024-03-02T10:11:54;249.93;;;240.43;;
20486;SDS011;10402;49.012;8.370;2024-03-02T10:14:32;255.23;;;245.27;;
20486;SDS011;10402;49.012;8.370;2024-03-02T10:17:04;254.10;;;244.03;;
20486;SDS011;10402;49.012;8.370;2024-03-02T10:19:34;275.40;;;263.47;;
20486;SDS011;10402;49.012;8.370;2024-03-02T10:22:02;328.20;;;313.67;;
20486;SDS011;10402;49.012;8.370;2024-03-02T10:24:37;362.77;;;346.20;;
20486;SDS011;10402;49.012;8.370;2024-03-02T10:27:07;393.50;;;374.63;;
20486;SDS011;10402;49.012;8.370;2024-03-02T10:29:37;418.33;;;399.17;;
20486;SDS011;10402;49.012;8.370;2024-03-02T10:32:04;396.40;;;378.67;;
20486;SDS011;10402;49.012;8.370;2024-03-02T10:34:31;390.20;;;371.80;;
20486;SDS011;10402;49.012;8.370;2024-03-02T10:36:57;364.60;;;347.37;;
20486;SDS011;10402;49.012;8.370;2024-03-02T10:39:23;393.00;;;374.07;;
20486;SDS011;10402;49.012;8.370;2024-03-02T10:41:49;386.63;;;368.07;;
20486;SDS011;10402;49.012;8.370;2024-03-02T10:44:17;375.13;;;357.60;;
20486;SDS011;10402;49.012;8.370;2024-03-02T10:46:43;349.87;;;334.20;;
20486;SDS011;10402;49.012;8.370;2024-03-02T10:49:12;342.27;;;327.17;;
20486;SDS011;10402;49.012;8.370;2024-03-02T10:51:37;315.70;;;302.03;;
20486;SDS011;10402;49.012;8.370;2024-03-02T10:54:03;296.50;;;284.37;;
20486;SDS011;10402;49.012;8.370;2024-03-02T11:01:51;257.23;;;248.17;;
20486;SDS011;10402;49.012;8.370;2024-03-02T11:04:20;217.30;;;209.63;;
20486;SDS011;10402;49.012;8.370;2024-03-02T11:06:49;234.33;;;225.87;;
20486;SDS011;10402;49.012;8.370;2024-03-02T11:09:16;272.53;;;261.67;;
20486;SDS011;10402;49.012;8.370;2024-03-02T11:11:44;316.97;;;303.53;;
20486;SDS011;10402;49.012;8.370;2024-03-02T11:14:21;343.37;;;328.17;;
20486;SDS011;10402;49.012;8.370;2024-03-02T11:16:50;410.67;;;392.30;;
20486;SDS011;10402;49.012;8.370;2024-03-02T11:19:17;460.37;;;438.57;;
20486;SDS011;10402;49.012;8.370;2024-03-02T11:21:43;521.43;;;495.73;;
20486;SDS011;10402;49.012;8.370;2024-03-02T11:26:52;625.53;;;591.80;;
20486;SDS011;10402;49.012;8.370;2024-03-02T11:32:05;729.30;;;686.40;;
20486;SDS011;10402;49.012;8.370;2024-03-02T11:34:42;732.83;;;689.40;;
20486;SDS011;10402;49.012;8.370;2024-03-02T11:37:12;711.00;;;668.10;;
20486;SDS011;10402;49.012;8.370;2024-03-02T11:39:39;711.10;;;669.10;;
20486;SDS011;10402;49.012;8.370;2024-03-02T11:42:07;701.43;;;659.80;;
20486;SDS011;10402;49.012;8.370;2024-03-02T11:44:36;670.47;;;632.40;;
20486;SDS011;10402;49.012;8.370;2024-03-02T11:47:05;671.53;;;634.53;;
20486;SDS011;10402;49.012;8.370;2024-03-02T11:49:39;662.60;;;626.80;;
20486;SDS011;10402;49.012;8.370;2024-03-02T11:52:16;607.60;;;576.63;;
20486;SDS011;10402;49.012;8.370;2024-03-02T11:54:43;550.77;;;525.07;;
20486;SDS011;10402;49.012;8.370;2024-03-02T11:57:22;526.80;;;502.90;;
20486;SDS011;10402;49.012;8.370;2024-03-02T11:59:48;513.83;;;490.43;;
20486;SDS011;10402;49.012;8.370;2024-03-02T12:02:18;502.90;;;479.93;;
20486;SDS011;10402;49.012;8.370;2024-03-02T12:04:45;521.03;;;496.43;;
20486;SDS011;10402;49.012;8.370;2024-03-02T12:07:13;520.03;;;495.27;;
20486;SDS011;10402;49.012;8.370;2024-03-02T12:09:44;555.57;;;527.90;;
20486;SDS011;10402;49.012;8.370;2024-03-02T12:12:10;563.97;;;536.17;;
20486;SDS011;10402;49.012;8.370;2024-03-02T12:14:37;571.67;;;543.27;;
20486;SDS011;10402;49.012;8.370;2024-03-02T12:17:03;552.70;;;525.57;;
20486;SDS011;10402;49.012;8.370;2024-03-02T12:19:30;550.80;;;523.97;;
20486;SDS011;10402;49.012;8.370;2024-03-02T12:21:56;537.47;;;511.20;;
20486;SDS011;10402;49.012;8.370;2024-03-02T12:24:23;504.57;;;480.63;;
20486;SDS011;10402;49.012;8.370;2024-03-02T12:26:50;499.97;;;476.27;;
20486;SDS011;10402;49.012;8.370;2024-03-02T12:29:17;496.70;;;473.43;;
20486;SDS011;10402;49.012;8.370;2024-03-02T12:31:45;489.70;;;466.77;;
20486;SDS011;10402;49.012;8.370;2024-03-02T12:34:14;470.37;;;448.77;;
20486;SDS011;10402;49.012;8.370;2024-03-02T12:36:40;448.23;;;427.70;;
20486;SDS011;10402;49.012;8.370;2024-03-02T12:39:07;420.87;;;402.37;;
20486;SDS011;10402;49.012;8.370;2024-03-02T12:41:35;411.67;;;393.27;;
20486;SDS011;10402;49.012;8.370;2024-03-02T12:44:02;388.13;;;371.17;;
20486;SDS011;10402;49.012;8.370;2024-03-02T12:46:28;377.00;;;360.33;;
20486;SDS011;10402;49.012;8.370;2024-03-02T12:48:55;375.80;;;359.10;;
20486;SDS011;10402;49.012;8.370;2024-03-02T12:51:20;369.03;;;352.73;;
20486;SDS011;10402;49.012;8.370;2024-03-02T12:53:52;373.23;;;356.77;;
20486;SDS011;10402;49.012;8.370;2024-03-02T12:56:19;364.93;;;348.43;;
20486;SDS011;10402;49.012;8.370;2024-03-02T12:58:45;379.63;;;361.63;;
20486;SDS011;10402;49.012;8.370;2024-03-02T13:01:10;348.27;;;331.67;;
20486;SDS011;10402;49.012;8.370;2024-03-02T13:03:37;391.60;;;373.13;;
20486;SDS011;10402;49.012;8.370;2024-03-02T13:06:04;372.77;;;355.07;;
20486;SDS011;10402;49.012;8.370;2024-03-02T13:08:31;379.93;;;361.40;;
20486;SDS011;10402;49.012;8.370;2024-03-02T13:10:57;348.50;;;332.37;;
20486;SDS011;10402;49.012;8.370;2024-03-02T13:13:22;372.83;;;354.77;;
20486;SDS011;10402;49.012;8.370;2024-03-02T13:15:48;368.43;;;350.67;;
20486;SDS011;10402;49.012;8.370;2024-03-02T13:18:13;387.23;;;368.57;;
20486;SDS011;10402;49.012;8.370;2024-03-02T13:20:39;364.33;;;346.97;;
20486;SDS011;10402;49.012;8.370;2024-03-02T13:23:05;348.40;;;331.47;;
20486;SDS011;10402;49.012;8.370;2024-03-02T13:25:31;358.53;;;341.30;;
20486;SDS011;10402;49.012;8.370;2024-03-02T13:27:57;332.57;;;316.60;;
20486;SDS011;10402;49.012;8.370;2024-03-02T13:30:23;328.63;;;313.03;;
20486;SDS011;10402;49.012;8.370;2024-03-02T13:32:48;328.57;;;313.13;;
20486;SDS011;10402;49.012;8.370;2024-03-02T13:35:14;331.73;;;316.03;;
20486;SDS011;10402;49.012;8.370;2024-03-02T13:37:39;321.70;;;306.77;;
20486;SDS011;10402;49.012;8.370;2024-03-02T13:40:05;340.27;;;324.33;;
20486;SDS011;10402;49.012;8.370;2024-03-02T13:42:31;314.10;;;299.60;;
20486;SDS011;10402;49.012;8.370;2024-03-02T13:44:57;295.80;;;282.10;;
20486;SDS011;10402;49.012;8.370;2024-03-02T13:47:23;314.43;;;299.93;;
20486;SDS011;10402;49.012;8.370;2024-03-02T13:49:48;326.57;;;311.50;;
20486;SDS011;10402;49.012;8.370;2024-03-02T13:52:14;312.57;;;298.40;;
20486;SDS011;10402;49.012;8.370;2024-03-02T13:54:42;304.37;;;290.63;;
20486;SDS011;10402;49.012;8.370;2024-03-02T13:57:09;320.47;;;306.00;;
20486;SDS011;10402;49.012;8.370;2024-03-02T13:59:35;302.30;;;288.77;;
20486;SDS011;10402;49.012;8.370;2024-03-02T14:02:02;308.00;;;294.77;;
20486;SDS011;10402;49.012;8.370;2024-03-02T14:04:30;298.20;;;285.63;;
20486;SDS011;10402;49.012;8.370;2024-03-02T14:06:56;307.57;;;294.63;;
20486;SDS011;10402;49.012;8.370;2024-03-02T14:09:22;306.47;;;293.80;;
20486;SDS011;10402;49.012;8.370;2024-03-02T14:11:49;307.20;;;294.77;;